Time;durP1;ratioP1;P1;durP2;ratioP2;P2;SDS_P1;SDS_P2;PMS_P1;PMS_P2;Temp;Humidity;BMP_temperature;BMP_pressure;BME280_temperature;BME280_humidity;BME280_pressure;Samples;Min_cycle;Max_cycle;Signal;HPM_P1;HPM_P2
2023/02/21 02:16:01;;;;;;;78.97;31.35;;;;;;;7.17;100.00;101561.50;5072726;28;20115;-56
2023/02/21 02:18:44;;;;;;;84.63;32.60;;;;;;;7.10;100.00;101565.53;5073630;28;20124;-56
2023/02/21 02:21:51;;;;;;;91.75;32.88;;;;;;;7.11;100.00;101568.06;5073173;28;20080;-57
2023/02/21 02:27:29;;;;;;;88.05;32.20;;;;;;;7.25;100.00;101564.41;5110738;27;20524;-54
2023/02/21 02:30:32;;;;;;;87.93;32.90;;;;;;;7.06;100.00;101567.53;5111020;28;20097;-56
2023/02/21 02:33:35;;;;;;;89.05;32.20;;;;;;;7.11;100.00;101565.41;5110755;28;20043;-55
2023/02/21 02:36:08;;;;;;;90.28;32.00;;;;;;;7.01;100.00;101563.56;5110598;28;20047;-55
2023/02/21 02:38:52;;;;;;;100.88;35.60;;;;;;;6.91;100.00;101566.84;5110843;28;20378;-55
2023/02/21 02:44:26;;;;;;;103.47;35.50;;;;;;;6.96;100.00;101561.25;5111309;27;20373;-58
2023/02/21 02:46:57;;;;;;;97.43;34.90;;;;;;;7.02;100.00;101557.31;5110632;28;20402;-56
2023/02/21 02:49:28;;;;;;;88.40;33.22;;;;;;;7.05;100.00;101565.00;5111215;28;20047;-55
2023/02/21 02:52:03;;;;;;;87.88;35.38;;;;;;;7.03;100.00;101554.56;5109554;28;20482;-55
2023/02/21 02:54:30;;;;;;;91.15;35.53;;;;;;;7.10;100.00;101552.34;5111063;28;20093;-55
2023/02/21 02:57:01;;;;;;;90.47;34.38;;;;;;;7.10;100.00;101560.25;5110897;28;20044;-56
2023/02/21 02:59:32;;;;;;;81.27;35.13;;;;;;;7.03;100.00;101551.94;5110674;28;20082;-55
2023/02/21 03:02:29;;;;;;;81.40;33.10;;;;;;;7.07;100.00;101547.28;5110354;28;20293;-55
2023/02/21 03:05:22;;;;;;;85.18;32.58;;;;;;;6.89;100.00;101541.53;5110621;28;20040;-55
2023/02/21 03:08:02;;;;;;;73.22;31.02;;;;;;;7.02;100.00;101542.34;5110809;28;20501;-55
2023/02/21 03:10:56;;;;;;;71.55;31.02;;;;;;;6.89;100.00;101545.03;5110811;28;20093;-55
2023/02/21 03:13:36;;;;;;;73.50;31.65;;;;;;;6.93;100.00;101543.00;5110629;28;20044;-54
2023/02/21 03:16:14;;;;;;;74.57;33.25;;;;;;;6.94;100.00;101536.78;5110587;28;20048;-55
2023/02/21 03:18:47;;;;;;;71.05;30.60;;;;;;;7.01;100.00;101535.38;5110548;28;20048;-55
2023/02/21 03:21:20;;;;;;;73.65;32.03;;;;;;;7.02;100.00;101539.72;5110369;28;20048;-55
2023/02/21 03:23:51;;;;;;;66.72;30.77;;;;;;;6.93;100.00;101532.47;5110467;28;20525;-55
2023/02/21 03:26:18;;;;;;;67.93;29.88;;;;;;;6.89;100.00;101531.84;5110557;28;20051;-54
2023/02/21 03:28:49;;;;;;;70.47;29.92;;;;;;;6.99;100.00;101526.72;5110444;28;20070;-55
2023/02/21 03:31:23;;;;;;;71.22;30.25;;;;;;;7.07;100.00;101534.91;5110532;28;20127;-55
2023/02/21 03:33:50;;;;;;;71.78;29.80;;;;;;;6.93;100.00;101545.66;5110330;28;20067;-55
2023/02/21 03:36:17;;;;;;;70.13;30.02;;;;;;;6.91;100.00;101535.22;5110128;28;20443;-55
2023/02/21 03:38:44;;;;;;;64.05;29.58;;;;;;;6.84;100.00;101536.59;5109922;28;20036;-55
2023/02/21 03:41:12;;;;;;;64.55;27.98;;;;;;;6.98;100.00;101535.59;5110184;28;20127;-55
2023/02/21 03:43:39;;;;;;;67.75;29.52;;;;;;;6.92;100.00;101530.75;5109601;28;20048;-55
2023/02/21 03:46:06;;;;;;;72.07;30.67;;;;;;;7.03;100.00;101537.91;5109931;28;20055;-54
2023/02/21 03:48:34;;;;;;;68.28;30.17;;;;;;;6.92;100.00;101539.50;5110134;28;20143;-54
2023/02/21 03:51:09;;;;;;;70.88;29.27;;;;;;;6.90;100.00;101544.06;5109859;28;20119;-54
2023/02/21 03:53:36;;;;;;;68.22;29.80;;;;;;;7.00;100.00;101540.75;5106448;28;20061;-54
2023/02/21 03:56:04;;;;;;;69.57;29.48;;;;;;;6.99;100.00;101539.91;5096143;28;20067;-56
2023/02/21 03:58:51;;;;;;;69.82;30.30;;;;;;;7.12;100.00;101539.88;5094722;28;20063;-56
2023/02/21 04:01:18;;;;;;;69.35;31.45;;;;;;;7.07;100.00;101540.19;5094323;28;20086;-54
2023/02/21 04:03:45;;;;;;;65.60;30.90;;;;;;;7.16;100.00;101540.50;5096002;28;20044;-55
2023/02/21 04:06:12;;;;;;;75.53;31.40;;;;;;;7.14;100.00;101539.75;5096124;28;20040;-55
2023/02/21 04:08:39;;;;;;;77.47;31.10;;;;;;;7.21;100.00;101538.38;5094837;28;20048;-55
2023/02/21 04:11:07;;;;;;;68.00;30.45;;;;;;;7.04;100.00;101535.16;5094676;28;20075;-55
2023/02/21 04:13:35;;;;;;;71.43;30.88;;;;;;;7.10;100.00;101534.69;5095903;28;20503;-55
2023/02/21 04:16:02;;;;;;;72.82;31.73;;;;;;;7.22;100.00;101526.84;5095495;28;20054;-55
2023/02/21 04:18:30;;;;;;;68.88;30.65;;;;;;;7.10;100.00;101533.88;5095793;28;20044;-55
2023/02/21 04:20:59;;;;;;;72.72;31.50;;;;;;;7.03;100.00;101528.19;5095919;28;20051;-55
2023/02/21 04:23:26;;;;;;;69.53;31.90;;;;;;;7.18;100.00;101528.84;5095882;28;20477;-55
2023/02/21 04:25:53;;;;;;;68.95;30.00;;;;;;;7.22;100.00;101530.34;5095747;28;20052;-55
2023/02/21 04:28:26;;;;;;;68.82;29.83;;;;;;;7.00;100.00;101524.94;5094535;28;20436;-55
2023/02/21 04:30:52;;;;;;;72.15;30.67;;;;;;;6.94;100.00;101525.38;5095784;28;20461;-55
2023/02/21 04:33:19;;;;;;;67.53;30.05;;;;;;;6.94;100.00;101523.56;5095457;28;20044;-55
2023/02/21 04:35:47;;;;;;;70.32;30.30;;;;;;;7.04;100.00;101523.75;5095460;28;20067;-55
2023/02/21 04:38:22;;;;;;;77.20;29.77;;;;;;;6.94;100.00;101522.75;5095434;28;20516;-54
2023/02/21 04:40:49;;;;;;;69.80;30.98;;;;;;;6.99;100.00;101523.25;5095487;28;20047;-55
2023/02/21 04:43:16;;;;;;;74.15;30.00;;;;;;;7.04;100.00;101527.25;5090900;28;20607;-55
2023/02/21 04:45:43;;;;;;;78.00;30.73;;;;;;;7.04;100.00;101524.59;5095137;28;20635;-55
2023/02/21 04:48:10;;;;;;;74.93;32.25;;;;;;;6.97;100.00;101531.28;5095194;28;20489;-55
2023/02/21 04:50:38;;;;;;;66.35;29.92;;;;;;;7.04;100.00;101527.25;5095181;28;20052;-55
2023/02/21 04:53:04;;;;;;;73.90;29.73;;;;;;;6.99;100.00;101526.72;5095085;28;20040;-55
2023/02/21 04:55:31;;;;;;;72.65;30.90;;;;;;;7.08;100.00;101523.41;5095135;28;20121;-56
2023/02/21 04:57:58;;;;;;;72.10;29.25;;;;;;;7.01;100.00;101526.63;5094842;28;20054;-55
2023/02/21 05:00:24;;;;;;;76.15;29.80;;;;;;;6.96;100.00;101523.47;5094434;28;20378;-55
2023/02/21 05:02:51;;;;;;;73.22;30.98;;;;;;;6.84;100.00;101526.06;5094379;28;20047;-55
2023/02/21 05:05:18;;;;;;;73.28;29.98;;;;;;;6.94;100.00;101525.38;5094118;28;20066;-54
2023/02/21 05:07:44;;;;;;;81.65;30.95;;;;;;;6.98;100.00;101529.47;5094758;28;20052;-55
2023/02/21 05:10:11;;;;;;;84.07;32.25;;;;;;;6.90;100.00;101525.59;5094609;28;20039;-55
2023/02/21 05:12:38;;;;;;;74.07;30.48;;;;;;;6.89;100.00;101525.69;5094297;28;20032;-56
2023/02/21 05:15:06;;;;;;;72.35;31.27;;;;;;;7.02;100.00;101531.78;5094612;28;20082;-56
2023/02/21 05:17:33;;;;;;;77.47;31.55;;;;;;;7.02;100.00;101529.16;5094670;28;20048;-55
2023/02/21 05:20:00;;;;;;;73.07;30.73;;;;;;;7.00;100.00;101533.66;5094713;28;20054;-56
2023/02/21 05:22:27;;;;;;;76.53;30.35;;;;;;;6.97;100.00;101533.06;5094519;28;20132;-55
2023/02/21 05:24:54;;;;;;;85.22;32.60;;;;;;;7.00;100.00;101525.75;5094012;28;20428;-55
2023/02/21 05:27:21;;;;;;;79.70;32.22;;;;;;;7.02;100.00;101537.06;5093802;28;20440;-55
2023/02/21 05:29:49;;;;;;;87.47;32.53;;;;;;;6.92;100.00;101534.25;5094240;28;20036;-55
2023/02/21 05:32:16;;;;;;;83.00;31.92;;;;;;;6.97;100.00;101533.06;5094406;28;20052;-55
2023/02/21 05:34:45;;;;;;;83.90;32.30;;;;;;;6.88;100.00;101529.31;5094059;28;20055;-55
2023/02/21 05:37:14;;;;;;;84.20;31.67;;;;;;;6.95;100.00;101530.56;5092841;28;20044;-55
2023/02/21 05:39:41;;;;;;;87.95;32.30;;;;;;;6.94;100.00;101526.22;5094143;28;20486;-55
2023/02/21 05:42:08;;;;;;;82.22;30.85;;;;;;;6.94;100.00;101531.50;5093981;28;20056;-56
2023/02/21 05:44:35;;;;;;;85.57;30.98;;;;;;;6.96;100.00;101547.22;5092511;28;20409;-55
2023/02/21 05:47:03;;;;;;;81.82;31.20;;;;;;;6.86;100.00;101539.97;5093938;28;20055;-55
2023/02/21 05:49:29;;;;;;;94.47;32.67;;;;;;;6.89;100.00;101531.84;5094014;28;20040;-55
2023/02/21 05:51:56;;;;;;;91.95;32.33;;;;;;;7.00;100.00;101531.03;5094219;28;20101;-56
2023/02/21 05:54:23;;;;;;;87.90;33.75;;;;;;;6.92;100.00;101528.13;5092670;28;20070;-55
2023/02/21 05:56:51;;;;;;;98.43;32.35;;;;;;;6.90;100.00;101533.50;5093820;28;20093;-56
2023/02/21 05:59:19;;;;;;;94.40;32.00;;;;;;;6.95;100.00;101529.69;5093588;28;20127;-55
2023/02/21 06:01:47;;;;;;;87.18;32.75;;;;;;;6.90;100.00;101527.41;5093468;28;20040;-55
2023/02/21 06:04:14;;;;;;;92.78;33.28;;;;;;;6.96;100.00;101528.75;5093755;28;20325;-55
2023/02/21 06:06:41;;;;;;;94.28;32.42;;;;;;;6.92;100.00;101521.03;5093251;28;20669;-55
2023/02/21 06:09:09;;;;;;;92.30;33.65;;;;;;;6.84;100.00;101520.78;5093779;28;20067;-55
2023/02/21 06:11:37;;;;;;;99.10;33.88;;;;;;;6.89;100.00;101526.56;5093142;28;20036;-55
2023/02/21 06:14:07;;;;;;;96.32;33.33;;;;;;;6.80;100.00;101523.72;5093226;28;20082;-55
2023/02/21 06:16:35;;;;;;;98.43;34.20;;;;;;;6.82;100.00;101524.47;5092974;28;20044;-56
2023/02/21 06:19:05;;;;;;;92.20;31.90;;;;;;;6.90;100.00;101525.59;5093564;28;20283;-55
2023/02/21 06:21:32;;;;;;;100.75;33.75;;;;;;;6.82;100.00;101520.03;5093526;28;20079;-56
2023/02/21 06:23:59;;;;;;;99.28;34.28;;;;;;;6.84;100.00;101518.13;5093419;28;20043;-55
2023/02/21 06:26:27;;;;;;;92.25;32.33;;;;;;;6.88;100.00;101509.03;5092238;28;20134;-55
2023/02/21 06:28:53;;;;;;;95.82;31.52;;;;;;;6.68;100.00;101514.91;5091564;28;20042;-55
2023/02/21 06:31:20;;;;;;;87.85;30.88;;;;;;;6.67;100.00;101521.97;5093660;28;20063;-55
2023/02/21 06:33:48;;;;;;;91.70;30.92;;;;;;;6.49;100.00;101523.28;5093318;28;20067;-55
2023/02/21 06:36:19;;;;;;;89.45;30.60;;;;;;;6.57;100.00;101520.94;5093036;28;20051;-55
2023/02/21 06:38:49;;;;;;;89.15;29.58;;;;;;;6.53;100.00;101524.72;5093328;28;20079;-55
2023/02/21 06:41:20;;;;;;;89.35;30.20;;;;;;;6.32;100.00;101527.09;5093221;28;20047;-55
2023/02/21 06:43:48;;;;;;;89.22;29.90;;;;;;;6.27;100.00;101532.69;5071493;28;20048;-55
2023/02/21 06:46:16;;;;;;;85.75;28.30;;;;;;;6.31;100.00;101521.00;5092726;28;20056;-55
2023/02/21 06:48:44;;;;;;;91.18;29.60;;;;;;;6.31;100.00;101528.91;5091859;28;20055;-56
2023/02/21 06:51:13;;;;;;;98.43;30.23;;;;;;;6.39;100.00;101528.38;5092517;28;20063;-55
2023/02/21 06:53:40;;;;;;;92.97;28.30;;;;;;;6.48;100.00;101522.44;5092535;28;20123;-55
2023/02/21 06:56:08;;;;;;;88.18;28.73;;;;;;;6.59;100.00;101526.97;5092859;28;20074;-56
2023/02/21 06:58:34;;;;;;;94.60;30.10;;;;;;;6.63;100.00;101525.78;5092599;28;20048;-56
2023/02/21 07:01:02;;;;;;;91.07;29.65;;;;;;;6.51;100.00;101531.91;5091896;28;20393;-56
2023/02/21 07:03:28;;;;;;;91.43;29.05;;;;;;;6.48;100.00;101522.44;5092910;28;20123;-56
2023/02/21 07:05:55;;;;;;;91.25;27.92;;;;;;;6.43;100.00;101524.56;5085590;28;20406;-56
2023/02/21 07:08:22;;;;;;;89.35;28.58;;;;;;;6.53;100.00;101530.00;5092019;28;20047;-56
2023/02/21 07:10:48;;;;;;;88.28;28.50;;;;;;;6.41;100.00;101529.09;5091282;28;20044;-56
2023/02/21 07:13:15;;;;;;;91.30;26.13;;;;;;;6.24;100.00;101535.56;5092290;28;20036;-56
2023/02/21 07:15:43;;;;;;;95.78;29.50;;;;;;;6.23;100.00;101536.50;5092663;28;20044;-56
2023/02/21 07:18:09;;;;;;;81.05;28.77;;;;;;;6.25;100.00;101531.94;5092891;28;20036;-56
2023/02/21 07:20:36;;;;;;;93.30;27.85;;;;;;;6.14;100.00;101537.13;5092563;28;20047;-56
2023/02/21 07:23:02;;;;;;;104.20;28.77;;;;;;;6.13;100.00;101531.03;5092603;28;20389;-56
2023/02/21 07:25:29;;;;;;;97.53;27.75;;;;;;;6.08;100.00;101538.41;5092851;28;20051;-56
2023/02/21 07:27:56;;;;;;;116.43;32.42;;;;;;;6.04;100.00;101531.66;5092459;28;20074;-56
2023/02/21 07:30:23;;;;;;;109.90;29.10;;;;;;;6.20;100.00;101535.84;5095844;28;20073;-56
2023/02/21 07:32:49;;;;;;;111.38;32.15;;;;;;;6.21;100.00;101534.91;5096735;28;20401;-56
2023/02/21 07:35:16;;;;;;;104.05;30.70;;;;;;;6.27;100.00;101534.47;5096407;28;20040;-56
2023/02/21 07:37:43;;;;;;;111.80;29.83;;;;;;;6.36;100.00;101539.13;5096210;28;20047;-56
2023/02/21 07:40:10;;;;;;;105.07;29.92;;;;;;;6.44;100.00;101539.44;5096223;28;20044;-56
2023/02/21 07:42:42;;;;;;;119.88;31.88;;;;;;;6.48;100.00;101540.06;5095621;28;20501;-56
2023/02/21 07:45:10;;;;;;;105.55;30.08;;;;;;;6.46;100.00;101547.25;5096149;28;20397;-57
2023/02/21 07:47:37;;;;;;;99.13;29.70;;;;;;;6.56;100.00;101555.34;5096487;28;20048;-56
2023/02/21 07:50:05;;;;;;;104.32;29.27;;;;;;;6.63;100.00;101546.88;5096499;28;20101;-56
2023/02/21 07:52:32;;;;;;;98.70;29.70;;;;;;;6.54;100.00;101550.16;5079248;28;20044;-54
2023/02/21 07:54:59;;;;;;;130.63;41.33;;;;;;;6.68;100.00;101551.84;5101751;28;20097;-55
2023/02/21 07:57:25;;;;;;;86.07;27.58;;;;;;;6.54;100.00;101555.44;5077277;28;20868;-55
2023/02/21 07:59:52;;;;;;;94.80;28.08;;;;;;;6.56;100.00;101552.69;5105451;28;20097;-55
2023/02/21 08:02:19;;;;;;;89.13;26.30;;;;;;;6.38;100.00;101554.81;5085768;28;20040;-54
2023/02/21 08:04:49;;;;;;;82.40;26.67;;;;;;;6.40;100.00;101547.66;5090850;28;20413;-54
2023/02/21 08:07:16;;;;;;;97.45;28.05;;;;;;;6.49;100.00;101552.28;5087795;28;20134;-55
2023/02/21 08:09:43;;;;;;;95.45;28.13;;;;;;;6.46;100.00;101550.72;5095586;28;20028;-55
2023/02/21 08:12:09;;;;;;;90.75;28.15;;;;;;;6.58;100.00;101564.81;5069867;28;20035;-55
2023/02/21 08:14:36;;;;;;;93.53;28.50;;;;;;;6.57;100.00;101557.00;5102765;28;20036;-55
2023/02/21 08:17:03;;;;;;;99.10;27.33;;;;;;;6.46;100.00;101558.63;5096186;28;20091;-54
2023/02/21 08:19:30;;;;;;;80.32;26.13;;;;;;;6.49;100.00;101549.63;5073879;28;20055;-55
2023/02/21 08:21:56;;;;;;;84.50;26.90;;;;;;;6.55;100.00;101551.84;5085987;28;20086;-55
2023/02/21 08:24:23;;;;;;;80.63;26.40;;;;;;;6.60;100.00;101557.63;5069312;28;20032;-55
2023/02/21 08:26:50;;;;;;;79.30;25.33;;;;;;;6.69;100.00;101550.88;5084173;28;20052;-55
2023/02/21 08:29:17;;;;;;;77.70;23.70;;;;;;;6.54;100.00;101551.00;5079598;28;20089;-54
2023/02/21 08:31:43;;;;;;;72.10;24.23;;;;;;;6.48;100.00;101558.50;5096692;28;20028;-54
2023/02/21 08:34:11;;;;;;;67.78;22.73;;;;;;;6.38;100.00;101562.72;5071642;28;20040;-55
2023/02/21 08:36:41;;;;;;;62.90;22.52;;;;;;;6.50;100.00;101569.78;5088659;28;20037;-54
2023/02/21 08:39:08;;;;;;;62.88;21.23;;;;;;;6.36;100.00;101562.00;5065058;28;20068;-55
2023/02/21 08:41:38;;;;;;;62.67;21.40;;;;;;;6.43;100.00;101550.06;5107004;28;20036;-55
2023/02/21 08:44:06;;;;;;;61.10;21.17;;;;;;;6.50;100.00;101557.44;5071237;28;20048;-53
2023/02/21 08:46:33;;;;;;;62.83;21.98;;;;;;;6.58;100.00;101556.06;5102387;28;20036;-53
2023/02/21 08:49:01;;;;;;;63.80;21.88;;;;;;;6.46;100.00;101555.16;5086359;28;20065;-55
2023/02/21 08:51:30;;;;;;;57.90;20.98;;;;;;;6.51;100.00;101551.22;5083353;28;20040;-55
2023/02/21 08:53:58;;;;;;;69.00;21.38;;;;;;;6.45;100.00;101551.63;5066996;28;20107;-55
2023/02/21 08:56:26;;;;;;;66.97;21.27;;;;;;;6.43;100.00;101543.00;5093782;28;20410;-55
2023/02/21 08:58:53;;;;;;;59.50;21.70;;;;;;;6.38;100.00;101546.91;5091558;28;20508;-55
2023/02/21 09:01:22;;;;;;;63.35;21.83;;;;;;;6.40;100.00;101550.28;5095193;28;20353;-57
2023/02/21 09:03:49;;;;;;;65.88;21.63;;;;;;;6.39;100.00;101543.34;5075127;28;20074;-56
2023/02/21 09:06:17;;;;;;;68.20;21.90;;;;;;;6.38;100.00;101541.66;5100518;28;20051;-56
2023/02/21 09:08:43;;;;;;;65.10;21.48;;;;;;;6.32;100.00;101542.91;5040308;28;20700;-56
2023/02/21 09:11:10;;;;;;;71.45;23.20;;;;;;;6.39;100.00;101533.63;5094407;28;20134;-56
2023/02/21 09:13:37;;;;;;;67.05;22.25;;;;;;;6.40;100.00;101535.31;5065613;28;20044;-56
2023/02/21 09:16:04;;;;;;;64.57;22.13;;;;;;;6.64;100.00;101532.75;5096136;28;20036;-57
2023/02/21 09:18:31;;;;;;;66.20;22.13;;;;;;;6.76;100.00;101530.19;5069111;28;20059;-58
2023/02/21 09:20:58;;;;;;;73.35;23.05;;;;;;;6.90;100.00;101537.94;5101402;28;20415;-57
2023/02/21 09:23:27;;;;;;;71.85;24.60;;;;;;;6.70;100.00;101536.75;5065924;28;20067;-55
2023/02/21 09:25:55;;;;;;;62.85;22.52;;;;;;;6.64;100.00;101522.22;5087430;28;20068;-56
2023/02/21 09:28:21;;;;;;;60.67;21.85;;;;;;;6.76;100.00;101527.56;5062878;28;20490;-56
2023/02/21 09:30:49;;;;;;;65.45;22.98;;;;;;;6.76;100.00;101515.19;5093767;28;20468;-56
2023/02/21 09:33:16;;;;;;;65.97;22.35;;;;;;;6.82;100.00;101524.47;5063209;28;20114;-57
2023/02/21 09:35:43;;;;;;;70.78;22.85;;;;;;;6.85;100.00;101529.53;5079223;28;20071;-54
2023/02/21 09:38:10;;;;;;;61.63;22.92;;;;;;;6.71;100.00;101534.00;5077941;28;21815;-56
2023/02/21 09:43:22;;;;;;;59.03;20.83;;;;;;;6.73;100.00;101536.50;5086685;27;20175;-56
2023/02/21 09:45:57;;;;;;;59.90;22.45;;;;;;;6.87;100.00;101530.25;5094367;28;20043;-56
2023/02/21 09:48:26;;;;;;;56.97;21.23;;;;;;;6.74;100.00;101525.00;5092279;27;20040;-57
2023/02/21 09:50:56;;;;;;;52.65;20.65;;;;;;;6.94;100.00;101525.38;5112175;28;20051;-56
2023/02/21 09:53:27;;;;;;;54.03;20.05;;;;;;;7.07;100.00;101531.44;5074379;28;26243;-56
2023/02/21 09:56:02;;;;;;;55.78;21.27;;;;;;;7.14;100.00;101524.75;5103141;28;20081;-56
2023/02/21 09:58:29;;;;;;;57.65;20.73;;;;;;;7.14;100.00;101519.50;5082917;27;20044;-56
2023/02/21 10:01:03;;;;;;;50.90;19.75;;;;;;;7.19;100.00;101524.44;5106969;28;20048;-56
2023/02/21 10:03:57;;;;;;;51.00;19.77;;;;;;;7.38;100.00;101524.75;5080317;27;20478;-56
2023/02/21 10:06:42;;;;;;;52.83;20.23;;;;;;;7.33;100.00;101532.19;5106150;28;20067;-56
2023/02/21 10:09:38;;;;;;;50.13;20.27;;;;;;;7.38;100.00;101527.38;5087061;28;20058;-56
2023/02/21 10:12:28;;;;;;;55.63;23.45;;;;;;;7.37;100.00;101517.78;5095531;28;20046;-56
2023/02/21 10:15:26;;;;;;;57.75;21.67;;;;;;;7.49;100.00;101519.53;5073266;27;20040;-56
2023/02/21 10:18:01;;;;;;;45.53;19.60;;;;;;;7.52;100.00;101526.38;5103178;28;20052;-57
2023/02/21 10:20:34;;;;;;;46.20;18.98;;;;;;;7.41;100.00;101524.53;5100445;28;20501;-56
2023/02/21 10:23:11;;;;;;;54.55;20.60;;;;;;;7.44;100.00;101524.31;5091520;28;20037;-57
2023/02/21 10:25:41;;;;;;;48.25;18.77;;;;;;;7.55;100.00;101526.16;5091851;28;20105;-57
2023/02/21 10:28:16;;;;;;;49.03;20.80;;;;;;;7.60;100.00;101526.63;5121802;28;20451;-58
2023/02/21 10:30:44;;;;;;;46.33;19.67;;;;;;;7.69;100.00;101530.38;5104676;28;20410;-56
2023/02/21 10:33:11;;;;;;;45.70;19.58;;;;;;;7.41;100.00;101527.16;5109376;28;20051;-58
2023/02/21 10:35:38;;;;;;;48.13;20.15;;;;;;;7.35;100.00;101529.41;5104752;28;20044;-57
2023/02/21 10:38:09;;;;;;;55.17;20.20;;;;;;;7.46;100.00;101521.56;5102911;28;20427;-57
2023/02/21 10:43:22;;;;;;;45.03;18.70;;;;;;;7.19;100.00;101525.28;5109297;27;20376;-56
2023/02/21 10:45:56;;;;;;;50.38;20.08;;;;;;;7.15;100.00;101525.59;5106070;28;20076;-56
2023/02/21 10:48:28;;;;;;;53.45;19.65;;;;;;;7.21;100.00;101514.59;5110417;28;20036;-56
2023/02/21 10:53:34;;;;;;;51.95;19.88;;;;;;;7.46;100.00;101522.38;5108493;27;1314970;-56
2023/02/21 10:56:20;;;;;;;51.97;21.00;;;;;;;7.43;100.00;101519.13;5104014;28;20601;-56
2023/02/21 11:04:21;;;;;;;62.70;22.25;;;;;;;7.74;100.00;101519.47;5089372;27;20385;-56
2023/02/21 11:06:53;;;;;;;63.17;21.67;;;;;;;7.73;100.00;101520.41;5084734;28;20716;-56
2023/02/21 11:09:39;;;;;;;63.67;22.70;;;;;;;7.79;100.00;101515.50;5090023;28;20048;-56
2023/02/21 11:12:24;;;;;;;58.03;21.52;;;;;;;7.67;100.00;101511.16;5066322;28;20044;-55
2023/02/21 11:17:28;;;;;;;70.40;23.88;;;;;;;7.49;100.00;101510.75;5108934;27;20351;-55
2023/02/21 11:20:05;;;;;;;68.28;22.40;;;;;;;7.45;100.00;101502.22;5098972;28;20123;-55
2023/02/21 11:25:30;;;;;;;57.03;21.95;;;;;;;7.37;100.00;101504.59;5089646;28;20126;-55
2023/02/21 11:31:07;;;;;;;61.92;22.65;;;;;;;7.52;100.00;101499.13;5130347;27;20357;-54
2023/02/21 11:33:39;;;;;;;69.50;23.25;;;;;;;7.74;100.00;101496.53;5121031;28;20039;-55
2023/02/21 11:36:13;;;;;;;60.03;21.27;;;;;;;7.80;100.00;101485.47;5117693;28;20097;-54
2023/02/21 11:38:44;;;;;;;70.00;23.15;;;;;;;7.67;100.00;101490.88;5106205;28;20438;-55
2023/02/21 11:41:21;;;;;;;64.63;21.73;;;;;;;7.82;100.00;101477.44;5127281;28;20627;-55
2023/02/21 11:43:51;;;;;;;55.78;20.30;;;;;;;7.81;100.00;101476.63;5120526;28;20112;-55
2023/02/21 11:46:30;;;;;;;53.63;19.92;;;;;;;7.92;100.00;101470.50;5119236;28;20044;-56
2023/02/21 11:49:21;;;;;;;55.85;19.90;;;;;;;8.01;100.00;101469.78;5116035;28;20043;-56
2023/02/21 11:51:54;;;;;;;56.90;20.17;;;;;;;8.09;100.00;101466.53;5124652;28;20526;-56
2023/02/21 11:54:26;;;;;;;60.08;20.45;;;;;;;8.14;100.00;101459.09;5126244;28;20479;-57
2023/02/21 11:57:19;;;;;;;57.67;20.60;;;;;;;8.01;100.00;101463.66;5111293;28;20036;-56
2023/02/21 12:00:08;;;;;;;53.22;19.25;;;;;;;8.09;100.00;101455.97;5125357;28;20701;-57
2023/02/21 12:03:22;;;;;;;49.13;18.92;;;;;;;8.01;100.00;101455.75;5069554;28;20379;-55
2023/02/21 12:06:28;;;;;;;51.03;19.42;;;;;;;7.73;100.00;101454.38;5056415;28;20065;-56
2023/02/21 12:09:06;;;;;;;48.03;18.00;;;;;;;7.69;100.00;101457.28;5069659;28;20052;-57
2023/02/21 12:11:43;;;;;;;50.45;18.15;;;;;;;7.56;100.00;101442.47;5061526;28;20422;-56
2023/02/21 12:14:21;;;;;;;45.50;17.58;;;;;;;7.73;100.00;101443.81;5049669;28;20528;-56
2023/02/21 12:17:21;;;;;;;43.85;16.88;;;;;;;7.69;100.00;101437.94;5043169;28;20127;-56
2023/02/21 12:20:27;;;;;;;43.28;17.20;;;;;;;7.73;100.00;101427.97;5063442;28;20051;-56
2023/02/21 12:23:34;;;;;;;42.72;16.45;;;;;;;7.74;100.00;101434.94;5064484;28;20048;-57
2023/02/21 12:26:21;;;;;;;39.70;15.73;;;;;;;7.57;100.00;101430.97;5068529;28;20384;-57
2023/02/21 12:29:20;;;;;;;37.50;14.57;;;;;;;7.60;100.00;101421.00;5045804;28;20521;-57
2023/02/21 12:32:26;;;;;;;42.25;16.30;;;;;;;7.47;100.00;101421.09;5044862;28;20041;-56
2023/02/21 12:35:20;;;;;;;46.25;16.00;;;;;;;7.47;100.00;101417.63;5045454;28;20064;-56
2023/02/21 12:38:29;;;;;;;45.03;15.45;;;;;;;7.69;100.00;101417.66;5043658;28;20461;-56
2023/02/21 12:43:59;;;;;;;43.70;16.70;;;;;;;7.90;100.00;101411.66;5108148;27;20387;-55
2023/02/21 12:47:05;;;;;;;37.35;16.13;;;;;;;7.95;100.00;101412.16;5110465;28;20044;-55
2023/02/21 12:49:57;;;;;;;37.67;15.80;;;;;;;8.18;100.00;101414.75;5105139;28;20039;-55
2023/02/21 12:52:39;;;;;;;38.97;15.95;;;;;;;7.98;100.00;101406.59;5101319;28;20493;-57
2023/02/21 12:55:25;;;;;;;47.53;17.98;;;;;;;7.95;100.00;101406.00;5109546;28;20070;-57
2023/02/21 12:57:58;;;;;;;38.10;14.73;;;;;;;8.11;100.00;101408.28;5106161;28;20044;-57
2023/02/21 13:00:35;;;;;;;43.30;18.40;;;;;;;7.98;100.00;101406.59;5108361;28;20047;-56
2023/02/21 13:03:33;;;;;;;49.05;18.75;;;;;;;8.12;100.00;101404.69;5107936;28;20085;-56
2023/02/21 13:06:25;;;;;;;44.50;18.05;;;;;;;8.09;100.00;101400.47;5104874;28;20040;-57
2023/02/21 13:09:06;;;;;;;44.53;17.77;;;;;;;8.12;100.00;101399.41;5102882;28;20047;-56
2023/02/21 13:12:13;;;;;;;44.47;17.45;;;;;;;8.13;100.00;101403.72;5109431;28;20072;-57
2023/02/21 13:14:46;;;;;;;44.30;18.10;;;;;;;7.94;100.00;101399.88;5104845;28;20047;-57
2023/02/21 13:17:15;;;;;;;46.63;17.83;;;;;;;7.97;100.00;101398.81;5109493;28;20466;-57
2023/02/21 13:20:05;;;;;;;45.00;18.42;;;;;;;8.00;100.00;101395.91;5105864;28;20048;-57
2023/02/21 13:26:44;;;;;;;44.25;18.88;;;;;;;7.82;100.00;101391.13;5101744;28;20040;-57
2023/02/21 13:29:19;;;;;;;54.65;19.95;;;;;;;7.74;100.00;101385.59;5130273;27;20130;-57
2023/02/21 13:31:57;;;;;;;46.40;19.75;;;;;;;7.77;100.00;101389.81;5125090;27;20053;-57
2023/02/21 13:34:28;;;;;;;45.90;19.20;;;;;;;7.91;100.00;101384.25;5129754;27;20519;-57
2023/02/21 13:37:01;;;;;;;50.72;18.98;;;;;;;7.86;100.00;101386.47;5125891;27;20054;-56
2023/02/21 13:39:35;;;;;;;62.15;19.88;;;;;;;7.93;100.00;101370.94;5073715;28;20077;-56
2023/02/21 13:42:14;;;;;;;55.58;20.48;;;;;;;8.07;100.00;101371.53;5109500;28;20507;-55
2023/02/21 13:44:46;;;;;;;59.40;22.90;;;;;;;8.10;100.00;101372.25;5128402;27;20096;-55
2023/02/21 13:47:16;;;;;;;56.70;21.33;;;;;;;8.11;100.00;101373.94;5103450;27;20044;-56
2023/02/21 13:50:04;;;;;;;51.55;20.92;;;;;;;8.19;100.00;101361.78;5102717;28;20039;-55
2023/02/21 13:52:35;;;;;;;55.38;21.08;;;;;;;7.74;100.00;101364.47;5101896;28;20070;-56
2023/02/21 13:58:11;;;;;;;56.90;20.60;;;;;;;8.03;100.00;101359.53;5104677;27;20392;-55
2023/02/21 14:08:41;;;;;;;49.22;18.67;;;;;;;7.91;100.00;101347.28;5102093;27;20403;-56
2023/02/21 14:11:15;;;;;;;52.33;20.00;;;;;;;7.85;100.00;101335.41;5116627;27;20060;-56
2023/02/21 14:13:51;;;;;;;46.78;19.10;;;;;;;7.80;100.00;101336.72;5103021;28;20138;-56
2023/02/21 14:16:43;;;;;;;54.75;19.92;;;;;;;7.81;100.00;101339.25;5106083;28;20062;-56
2023/02/21 14:19:19;;;;;;;53.40;19.45;;;;;;;7.84;100.00;101339.03;5108836;28;20062;-56
2023/02/21 14:21:48;;;;;;;52.60;20.02;;;;;;;7.88;100.00;101334.34;5106304;28;20070;-55
2023/02/21 14:26:56;;;;;;;44.53;19.70;;;;;;;7.87;100.00;101333.47;5086466;27;20360;-55
2023/02/21 14:29:38;;;;;;;53.45;20.70;;;;;;;7.94;100.00;101333.00;5085045;28;20036;-56
2023/02/21 14:34:53;;;;;;;44.28;19.13;;;;;;;8.38;100.00;101329.41;5052261;27;20385;-56
2023/02/21 14:37:32;;;;;;;53.58;19.83;;;;;;;8.37;100.00;101314.53;5064542;28;20138;-56
2023/02/21 14:43:01;;;;;;;51.22;19.92;;;;;;;8.43;100.00;101310.56;5082566;27;20363;-55
2023/02/21 14:52:02;;;;;;;50.92;19.42;;;;;;;8.60;99.27;101306.50;5100331;27;20394;-55